Portada
METAR-TAF:

METAR-TAF

Aeropuertos :

Aeropuerto de Granada

Granada, España

latitud: 37-11N, longitud: 003-47W, altitud: 567 m

Observación

El informe se hizo hace 32 minutos, a las 02:00 UTC
Viento calma
Temperatura 3°C
Humedad 93%
Presión 1030 hPa
Visibilidad: 6000 m

METAR: LEGR 100200Z AUTO 00000KT 6000 NCD 03/02 Q1030

Hora: 03:32 (02:32 UTC)

Pronóstico

El informe se hizo hace 6 horas y 32 minutos, a las 20:00 UTC
Pronóstico válido del 09 a las 21 UTC al 10 a las 21 UTC
Viento 2 kt con dirección variable
Visibilidad 10 km o más
sin nubes por debajo de 1500 m y sin presencia de cumulonimbus.

TAF: LEGR 092000Z 0921/1021 VRB02KT CAVOK TX21/1015Z TN00/1007Z

Observaciones y pronósticos meteorológicos de más de 4000 aeropuertos (mensajes METAR y TAF).

Los puntos amarillos y rojos representan las estaciones disponibles.

Ponga el ratón en el punto deseado para ver el nombre de la estación.

Haga clic para ver las observaciones y los pronósticos meteorológicos.

Para cambiar el mapa : haga clic en los botones verdes con una cruz de color negro para hacer un zoom, en el botón verde con un guión para alejar o en las flechas verdes para mapas adyacentes.


METAR-TAF: